createdAt,value
2019-01-24T00:00:43.014Z,-1.20
2019-01-24T00:03:10.789Z,-1.20
2019-01-24T00:05:38.757Z,-1.20
2019-01-24T00:08:07.537Z,-1.20
2019-01-24T00:10:35.896Z,-1.20
2019-01-24T00:13:03.941Z,-1.10
2019-01-24T00:15:32.513Z,-1.20
2019-01-24T00:18:00.300Z,-1.20
2019-01-24T00:20:28.661Z,-1.20
2019-01-24T00:22:57.023Z,-1.10
2019-01-24T00:25:25.424Z,-1.10
2019-01-24T00:27:53.921Z,-1.00
2019-01-24T00:30:22.523Z,-1.10
2019-01-24T00:32:50.806Z,-1.00
2019-01-24T00:35:19.152Z,-1.00
2019-01-24T00:37:48.014Z,-1.20
2019-01-24T00:40:17.613Z,-1.20
2019-01-24T00:42:46.138Z,-1.10
2019-01-24T00:45:14.276Z,-1.30
2019-01-24T00:47:42.736Z,-1.30
2019-01-24T00:50:11.096Z,-1.20
2019-01-24T00:52:39.801Z,-1.20
2019-01-24T00:55:09.936Z,-1.20
2019-01-24T00:57:38.606Z,-1.20
2019-01-24T01:00:19.032Z,-1.20
2019-01-24T01:02:46.938Z,-1.30
2019-01-24T01:05:14.655Z,-1.30
2019-01-24T01:07:42.066Z,-1.40
2019-01-24T01:10:09.572Z,-1.30
2019-01-24T01:12:36.821Z,-1.20
2019-01-24T01:15:06.487Z,-1.20
2019-01-24T01:17:34.885Z,-1.20
2019-01-24T01:20:04.383Z,-1.20
2019-01-24T01:22:32.934Z,-1.20
2019-01-24T01:25:01.125Z,-1.30
2019-01-24T01:27:29.410Z,-1.30
2019-01-24T01:29:57.693Z,-1.30
2019-01-24T01:32:26.354Z,-1.30
2019-01-24T01:34:55.108Z,-1.30
2019-01-24T01:37:23.888Z,-1.30
2019-01-24T01:39:52.094Z,-1.50
2019-01-24T01:42:20.140Z,-1.30
2019-01-24T01:44:48.297Z,-1.40
2019-01-24T01:47:16.528Z,-1.40
2019-01-24T01:49:44.802Z,-1.40
2019-01-24T01:52:13.292Z,-1.40
2019-01-24T01:54:41.442Z,-1.30
2019-01-24T01:57:09.717Z,-1.30
2019-01-24T01:59:38.222Z,-1.30
2019-01-24T02:02:06.565Z,-1.30
2019-01-24T02:04:34.941Z,-1.30
2019-01-24T02:07:03.599Z,-1.30
2019-01-24T02:09:32.062Z,-1.50
2019-01-24T02:12:00.257Z,-1.60
2019-01-24T02:14:28.593Z,-1.50
2019-01-24T02:16:57.414Z,-1.50
2019-01-24T02:19:25.818Z,-1.60
2019-01-24T02:21:54.360Z,-1.60
2019-01-24T02:24:23.033Z,-1.60
2019-01-24T02:26:51.602Z,-1.50
2019-01-24T02:29:19.755Z,-1.40
2019-01-24T02:31:48.411Z,-1.40
2019-01-24T02:34:17.087Z,-1.50
2019-01-24T02:36:45.133Z,-1.50
2019-01-24T02:39:13.432Z,-1.50
2019-01-24T02:41:41.462Z,-1.60
2019-01-24T02:44:09.737Z,-1.60
2019-01-24T02:46:37.743Z,-1.80
2019-01-24T02:49:05.653Z,-1.90
2019-01-24T02:51:34.537Z,-1.90
2019-01-24T02:54:03.002Z,-2.00
2019-01-24T02:56:31.693Z,-1.90
2019-01-24T02:58:59.557Z,-1.80
2019-01-24T03:01:28.200Z,-1.80
2019-01-24T03:03:55.795Z,-1.70
2019-01-24T03:06:24.770Z,-1.80
2019-01-24T03:08:53.085Z,-1.80
2019-01-24T03:11:21.327Z,-1.80
2019-01-24T03:13:49.730Z,-1.80
2019-01-24T03:16:18.525Z,-1.70
2019-01-24T03:18:46.920Z,-1.80
2019-01-24T03:21:14.841Z,-1.90
2019-01-24T03:23:42.777Z,-1.80
2019-01-24T03:26:10.810Z,-1.90
2019-01-24T03:28:39.181Z,-1.80
2019-01-24T03:31:07.487Z,-1.80
2019-01-24T03:33:35.888Z,-1.80
2019-01-24T03:36:04.050Z,-1.90
2019-01-24T03:38:32.365Z,-1.80
2019-01-24T03:41:00.308Z,-1.90
2019-01-24T03:43:28.214Z,-2.00
2019-01-24T03:45:56.305Z,-1.90
2019-01-24T03:48:24.606Z,-2.00
2019-01-24T03:50:52.770Z,-2.10
2019-01-24T03:53:20.783Z,-2.00
2019-01-24T03:55:48.994Z,-2.00
2019-01-24T03:58:16.993Z,-2.00
2019-01-24T04:00:45.146Z,-2.00
2019-01-24T04:03:13.204Z,-2.00
2019-01-24T04:05:41.413Z,-2.00
2019-01-24T04:08:09.463Z,-2.00
2019-01-24T04:10:37.425Z,-1.90
2019-01-24T04:13:05.546Z,-1.90
2019-01-24T04:15:33.938Z,-2.00
2019-01-24T04:18:01.937Z,-1.90
2019-01-24T04:20:30.102Z,-1.90
2019-01-24T04:22:58.179Z,-1.90
2019-01-24T04:25:26.354Z,-1.90
2019-01-24T04:27:54.389Z,-2.00
2019-01-24T04:30:22.820Z,-1.90
2019-01-24T04:32:51.059Z,-1.80
2019-01-24T04:35:20.222Z,-1.90
2019-01-24T04:37:48.842Z,-1.70
2019-01-24T04:40:17.443Z,-1.90
2019-01-24T04:42:45.550Z,-1.80
2019-01-24T04:45:14.167Z,-1.80
2019-01-24T04:47:42.811Z,-1.70
2019-01-24T04:50:12.723Z,-1.70
2019-01-24T04:52:40.881Z,-1.80
2019-01-24T04:55:10.527Z,-1.80
2019-01-24T04:57:38.850Z,-1.80
2019-01-24T05:00:11.598Z,-1.90
2019-01-24T05:02:39.605Z,-1.80
2019-01-24T05:05:08.518Z,-1.90
2019-01-24T05:07:37.246Z,-2.00
2019-01-24T05:10:05.836Z,-2.00
2019-01-24T05:12:34.626Z,-2.10
2019-01-24T05:15:03.897Z,-2.10
2019-01-24T05:17:30.780Z,-2.10
2019-01-24T05:19:58.792Z,-2.10
2019-01-24T05:22:26.925Z,-2.00
2019-01-24T05:24:53.799Z,-1.90
2019-01-24T05:27:21.815Z,-1.80
2019-01-24T05:29:49.886Z,-1.80
2019-01-24T05:32:17.750Z,-1.80
2019-01-24T05:34:46.063Z,-1.80
2019-01-24T05:37:14.056Z,-1.80
2019-01-24T05:39:42.070Z,-1.90
2019-01-24T05:42:09.938Z,-1.90
2019-01-24T05:44:38.039Z,-1.90
2019-01-24T05:47:06.005Z,-1.90
2019-01-24T05:49:33.854Z,-1.90
2019-01-24T05:52:01.719Z,-1.90
2019-01-24T05:54:29.747Z,-1.90
2019-01-24T05:56:57.710Z,-1.90
2019-01-24T05:59:25.626Z,-1.80
2019-01-24T06:01:54.302Z,-1.90
2019-01-24T06:04:22.288Z,-1.80
2019-01-24T06:06:50.401Z,-1.70
2019-01-24T06:09:18.639Z,-1.70
2019-01-24T06:11:46.698Z,-1.70
2019-01-24T06:14:14.669Z,-1.80
2019-01-24T06:16:42.562Z,-1.80
2019-01-24T06:19:10.824Z,-1.80
2019-01-24T06:21:39.027Z,-1.80
2019-01-24T06:24:06.991Z,-1.90
2019-01-24T06:26:34.954Z,-2.00
2019-01-24T06:29:03.125Z,-2.10
2019-01-24T06:31:31.011Z,-2.10
2019-01-24T06:33:58.938Z,-2.00
2019-01-24T06:36:27.356Z,-2.00
2019-01-24T06:38:55.363Z,-1.90
2019-01-24T06:41:23.235Z,-2.00
2019-01-24T06:43:51.139Z,-2.00
2019-01-24T06:46:19.139Z,-2.00
2019-01-24T06:48:47.093Z,-2.10
2019-01-24T06:51:14.980Z,-2.10
2019-01-24T06:53:42.968Z,-2.00
2019-01-24T06:56:10.981Z,-2.00
2019-01-24T06:58:38.862Z,-2.00
2019-01-24T07:01:06.866Z,-2.20
2019-01-24T07:03:34.798Z,-2.30
2019-01-24T07:06:02.970Z,-2.30
2019-01-24T07:08:30.849Z,-2.20
2019-01-24T07:10:58.755Z,-2.10
2019-01-24T07:13:26.687Z,-2.20
2019-01-24T07:15:54.572Z,-2.10
2019-01-24T07:18:22.662Z,-2.10
2019-01-24T07:20:50.557Z,-2.10
2019-01-24T07:23:18.399Z,-2.10
2019-01-24T07:25:46.400Z,-2.00
2019-01-24T07:28:14.317Z,-2.00
2019-01-24T07:30:42.534Z,-1.90
2019-01-24T07:33:10.840Z,-2.00
2019-01-24T07:35:38.705Z,-2.10
2019-01-24T07:38:06.785Z,-2.00
2019-01-24T07:40:34.766Z,-1.90
2019-01-24T07:43:02.905Z,-2.10
2019-01-24T07:45:36.616Z,-2.00
2019-01-24T07:48:05.421Z,-2.10
2019-01-24T07:50:33.450Z,-2.10
2019-01-24T07:53:01.696Z,-2.30
2019-01-24T07:55:29.679Z,-2.30
2019-01-24T07:57:57.726Z,-2.30
2019-01-24T08:00:26.017Z,-2.20
2019-01-24T08:02:54.167Z,-2.20
2019-01-24T08:05:22.700Z,-2.40
2019-01-24T08:07:51.798Z,-2.40
2019-01-24T08:10:20.048Z,-2.40
2019-01-24T08:12:48.141Z,-2.30
2019-01-24T08:15:17.217Z,-2.20
2019-01-24T08:17:45.307Z,-2.10
2019-01-24T08:20:15.680Z,-2.00
2019-01-24T08:22:43.849Z,-2.10
2019-01-24T08:25:12.370Z,-2.10
2019-01-24T08:27:40.363Z,-2.10
2019-01-24T08:30:20.208Z,-2.10
2019-01-24T08:32:47.352Z,-2.10
2019-01-24T08:35:14.766Z,-2.10
2019-01-24T08:37:41.847Z,-2.00
2019-01-24T08:40:09.955Z,-1.90
2019-01-24T08:42:37.497Z,-1.80
2019-01-24T08:45:06.225Z,-1.70
2019-01-24T08:47:34.375Z,-1.70
2019-01-24T08:50:03.953Z,-1.80
2019-01-24T08:52:31.666Z,-1.90
2019-01-24T08:54:59.338Z,-1.90
2019-01-24T08:57:26.435Z,-1.90
2019-01-24T08:59:54.842Z,-1.80
2019-01-24T09:02:22.962Z,-1.80
2019-01-24T09:04:51.308Z,-1.90
2019-01-24T09:07:19.469Z,-2.00
2019-01-24T09:09:48.129Z,-2.10
2019-01-24T09:12:16.670Z,-2.00
2019-01-24T09:14:45.135Z,-2.00
2019-01-24T09:17:12.704Z,-1.90
2019-01-24T09:19:41.314Z,-1.90
2019-01-24T09:22:09.586Z,-1.90
2019-01-24T09:24:38.411Z,-2.00
2019-01-24T09:27:07.654Z,-2.00
2019-01-24T09:29:35.865Z,-2.00
2019-01-24T09:32:04.406Z,-2.00
2019-01-24T09:34:32.958Z,-2.00
2019-01-24T09:37:01.502Z,-1.90
2019-01-24T09:39:29.813Z,-2.00
2019-01-24T09:41:58.040Z,-1.90
2019-01-24T09:44:27.645Z,-2.00
2019-01-24T09:46:55.590Z,-2.10
2019-01-24T09:49:23.786Z,-2.00
2019-01-24T09:51:52.266Z,-1.90
2019-01-24T09:54:21.468Z,-2.00
2019-01-24T09:56:49.754Z,-2.00
2019-01-24T09:59:17.933Z,-1.90
2019-01-24T10:01:46.562Z,-1.90
2019-01-24T10:04:15.390Z,-1.90
2019-01-24T10:06:43.557Z,-1.90
2019-01-24T10:09:12.035Z,-1.90
2019-01-24T10:11:40.565Z,-2.00
2019-01-24T10:14:08.758Z,-1.80
2019-01-24T10:16:37.270Z,-1.80
2019-01-24T10:19:05.670Z,-1.70
2019-01-24T10:21:33.982Z,-1.60
2019-01-24T10:24:02.736Z,-1.60
2019-01-24T10:26:31.063Z,-1.70
2019-01-24T10:28:59.096Z,-1.60
2019-01-24T10:31:27.466Z,-1.60
2019-01-24T10:33:55.875Z,-1.60
2019-01-24T10:36:24.428Z,-1.50
2019-01-24T10:38:53.056Z,-1.50
2019-01-24T10:41:21.189Z,-1.60
2019-01-24T10:43:49.805Z,-1.40
2019-01-24T10:46:18.073Z,-1.50
2019-01-24T10:48:46.196Z,-1.50
2019-01-24T10:51:14.821Z,-1.30
2019-01-24T10:53:43.108Z,-1.40
2019-01-24T10:56:11.740Z,-1.50
2019-01-24T10:58:40.110Z,-1.40
2019-01-24T11:01:08.893Z,-1.40
2019-01-24T11:03:37.251Z,-1.40
2019-01-24T11:06:05.701Z,-1.50
2019-01-24T11:08:34.337Z,-1.40
2019-01-24T11:11:02.597Z,-1.30
2019-01-24T11:13:31.214Z,-1.30
2019-01-24T11:15:59.720Z,-1.20
2019-01-24T11:18:28.823Z,-1.30
2019-01-24T11:20:57.309Z,-1.30
2019-01-24T11:23:25.945Z,-1.30
2019-01-24T11:25:54.408Z,-1.20
2019-01-24T11:28:22.479Z,-1.30
2019-01-24T11:30:50.854Z,-1.30
2019-01-24T11:33:18.789Z,-1.40
2019-01-24T11:35:47.110Z,-1.50
2019-01-24T11:38:15.998Z,-1.40
2019-01-24T11:40:44.590Z,-1.40
2019-01-24T11:43:13.027Z,-1.50
2019-01-24T11:45:42.720Z,-1.50
2019-01-24T11:48:11.467Z,-1.40
2019-01-24T11:50:40.021Z,-1.30
2019-01-24T11:53:08.286Z,-1.20
2019-01-24T11:55:36.862Z,-1.00
2019-01-24T11:58:05.717Z,-0.90
2019-01-24T12:00:39.286Z,-1.00
2019-01-24T12:03:07.626Z,-1.00
2019-01-24T12:05:36.677Z,-1.00
2019-01-24T12:08:06.189Z,-1.10
2019-01-24T12:10:34.339Z,-1.10
2019-01-24T12:13:02.999Z,-1.20
2019-01-24T12:15:31.665Z,-1.20
2019-01-24T12:18:00.047Z,-1.10
2019-01-24T12:20:28.676Z,-0.90
2019-01-24T12:22:57.272Z,-0.70
2019-01-24T12:25:25.381Z,-0.60
2019-01-24T12:27:53.907Z,-0.50
2019-01-24T12:30:26.962Z,-0.40
2019-01-24T12:32:54.681Z,-0.40
2019-01-24T12:35:22.374Z,-0.30
2019-01-24T12:37:51.276Z,-0.50
2019-01-24T12:40:19.665Z,-0.70
2019-01-24T12:42:48.315Z,-0.70
2019-01-24T12:45:21.514Z,-0.60
2019-01-24T12:47:49.920Z,-0.60
2019-01-24T12:50:18.611Z,-0.70
2019-01-24T12:52:46.984Z,-1.00
2019-01-24T12:55:15.463Z,-1.30
2019-01-24T12:57:44.588Z,-1.50
2019-01-24T13:00:21.365Z,-1.30
2019-01-24T13:02:49.526Z,-1.20
2019-01-24T13:05:18.201Z,-1.00
2019-01-24T13:07:46.620Z,-1.00
2019-01-24T13:10:16.847Z,-0.90
2019-01-24T13:12:45.389Z,-1.00
2019-01-24T13:15:13.934Z,-0.90
2019-01-24T13:17:42.265Z,-1.00
2019-01-24T13:20:12.138Z,-1.00
2019-01-24T13:22:40.723Z,-1.10
2019-01-24T13:25:11.917Z,-1.00
2019-01-24T13:27:39.859Z,-1.00
2019-01-24T13:30:11.654Z,-1.20
2019-01-24T13:32:40.386Z,-1.30
2019-01-24T13:35:08.865Z,-1.30
2019-01-24T13:37:37.707Z,-1.20
2019-01-24T13:40:08.798Z,-1.00
2019-01-24T13:42:36.810Z,-1.00
2019-01-24T13:45:07.254Z,-1.00
2019-01-24T13:47:35.706Z,-1.00
2019-01-24T13:50:05.460Z,-0.90
2019-01-24T13:52:33.851Z,-0.80
2019-01-24T13:55:02.005Z,-0.70
2019-01-24T13:57:30.065Z,-0.60
2019-01-24T13:59:58.270Z,-0.70
2019-01-24T14:02:26.730Z,-0.60
2019-01-24T14:04:54.916Z,-0.50
2019-01-24T14:07:23.854Z,-0.50
2019-01-24T14:09:52.186Z,-0.50
2019-01-24T14:12:20.396Z,-0.50
2019-01-24T14:14:48.875Z,-0.50
2019-01-24T14:17:17.294Z,-0.90
2019-01-24T14:19:45.218Z,-0.90
2019-01-24T14:22:13.518Z,-0.80
2019-01-24T14:24:42.077Z,-0.60
2019-01-24T14:27:10.358Z,-0.70
2019-01-24T14:29:38.497Z,-0.60
2019-01-24T14:32:06.747Z,-0.60
2019-01-24T14:34:35.018Z,-0.60
2019-01-24T14:37:03.421Z,-0.70
2019-01-24T14:39:31.334Z,-0.70
2019-01-24T14:41:59.859Z,-0.80
2019-01-24T14:44:28.175Z,-0.90
2019-01-24T14:46:56.715Z,-0.90
2019-01-24T14:49:25.225Z,-0.90
2019-01-24T14:51:54.014Z,-0.90
2019-01-24T14:54:22.288Z,-0.90
2019-01-24T14:56:50.705Z,-1.00
2019-01-24T14:59:19.005Z,-0.80
2019-01-24T15:01:47.440Z,-0.80
2019-01-24T15:04:16.039Z,-0.80
2019-01-24T15:06:44.880Z,-0.70
2019-01-24T15:09:13.037Z,-0.70
2019-01-24T15:11:42.120Z,-0.60
2019-01-24T15:14:10.390Z,-0.60
2019-01-24T15:16:38.765Z,-0.60
2019-01-24T15:19:06.706Z,-0.60
2019-01-24T15:21:35.997Z,-0.60
2019-01-24T15:24:04.489Z,-0.70
2019-01-24T15:26:33.118Z,-0.60
2019-01-24T15:29:01.643Z,-0.60
2019-01-24T15:31:30.095Z,-0.50
2019-01-24T15:33:59.011Z,-0.60
2019-01-24T15:36:27.671Z,-0.60
2019-01-24T15:38:56.462Z,-0.70
2019-01-24T15:41:25.035Z,-0.60
2019-01-24T15:43:53.278Z,-0.50
2019-01-24T15:46:21.618Z,-0.50
2019-01-24T15:48:57.167Z,-0.60
2019-01-24T15:51:24.901Z,-0.50
2019-01-24T15:53:52.321Z,-0.50
2019-01-24T15:56:20.142Z,-0.50
2019-01-24T15:58:50.797Z,-0.40
2019-01-24T16:01:18.721Z,-0.50
2019-01-24T16:03:46.019Z,-0.50
2019-01-24T16:06:13.506Z,-0.50
2019-01-24T16:08:40.647Z,-0.60
2019-01-24T16:11:08.656Z,-0.70
2019-01-24T16:13:37.383Z,-0.80
2019-01-24T16:16:05.941Z,-0.80
2019-01-24T16:18:34.672Z,-1.00
2019-01-24T16:21:02.821Z,-1.00
2019-01-24T16:23:31.435Z,-0.90
2019-01-24T16:25:59.873Z,-1.00
2019-01-24T16:28:28.208Z,-0.90
2019-01-24T16:30:56.771Z,-0.90
2019-01-24T16:33:25.401Z,-0.90
2019-01-24T16:35:53.986Z,-0.90
2019-01-24T16:38:22.287Z,-0.90
2019-01-24T16:40:50.453Z,-0.90
2019-01-24T16:43:18.979Z,-1.00
2019-01-24T16:45:47.335Z,-0.90
2019-01-24T16:48:15.756Z,-0.80
2019-01-24T16:50:44.083Z,-0.70
2019-01-24T16:53:12.610Z,-0.90
2019-01-24T16:55:40.532Z,-0.80
2019-01-24T16:58:08.955Z,-0.80
2019-01-24T17:01:01.602Z,-0.80
2019-01-24T17:03:29.090Z,-0.70
2019-01-24T17:05:56.571Z,-0.60
2019-01-24T17:08:24.073Z,-0.70
2019-01-24T17:10:51.574Z,-0.70
2019-01-24T17:13:19.138Z,-0.80
2019-01-24T17:15:47.109Z,-0.90
2019-01-24T17:18:14.347Z,-0.90
2019-01-24T17:20:42.694Z,-0.80
2019-01-24T17:23:11.347Z,-0.70
2019-01-24T17:25:40.006Z,-0.60
2019-01-24T17:28:08.489Z,-0.60
2019-01-24T17:30:36.940Z,-0.50
2019-01-24T17:33:06.364Z,-0.60
2019-01-24T17:35:34.529Z,-0.60
2019-01-24T17:38:02.687Z,-0.60
2019-01-24T17:40:30.994Z,-0.60
2019-01-24T17:42:59.530Z,-0.50
2019-01-24T17:45:27.842Z,-0.50
2019-01-24T17:47:56.594Z,-0.40
2019-01-24T17:50:24.941Z,-0.40
2019-01-24T17:52:53.198Z,-0.40
2019-01-24T17:55:24.252Z,-0.40
2019-01-24T17:57:52.690Z,-0.30
2019-01-24T18:00:21.585Z,-0.40
2019-01-24T18:02:49.780Z,-0.50
2019-01-24T18:05:18.050Z,-0.50
2019-01-24T18:07:46.168Z,-0.60
2019-01-24T18:10:16.974Z,-0.50
2019-01-24T18:12:45.210Z,-0.40
2019-01-24T18:15:16.600Z,-0.50
2019-01-24T18:17:45.040Z,-0.40
2019-01-24T18:20:18.414Z,-0.40
2019-01-24T18:22:46.409Z,-0.50
2019-01-24T18:25:14.645Z,-0.50
2019-01-24T18:27:43.357Z,-0.50
2019-01-24T18:30:15.028Z,-0.50
2019-01-24T18:32:43.921Z,-0.50
2019-01-24T18:35:13.787Z,-0.40
2019-01-24T18:37:42.088Z,-0.40
2019-01-24T18:40:13.133Z,-0.40
2019-01-24T18:42:41.433Z,-0.40
2019-01-24T18:45:12.268Z,-0.40
2019-01-24T18:47:40.625Z,-0.40
2019-01-24T18:50:12.182Z,-0.50
2019-01-24T18:52:43.629Z,-0.60
2019-01-24T18:55:11.919Z,-0.50
2019-01-24T18:57:40.004Z,-0.50
2019-01-24T19:00:12.144Z,-0.50
2019-01-24T19:02:40.534Z,-0.50
2019-01-24T19:05:09.269Z,-0.50
2019-01-24T19:07:37.313Z,-0.50
2019-01-24T19:10:06.167Z,-0.40
2019-01-24T19:12:34.470Z,-0.40
2019-01-24T19:15:04.014Z,-0.30
2019-01-24T19:17:32.162Z,-0.30
2019-01-24T19:20:00.536Z,-0.40
2019-01-24T19:22:28.553Z,-0.50
2019-01-24T19:24:57.063Z,-0.60
2019-01-24T19:27:25.165Z,-0.70
2019-01-24T19:29:53.404Z,-0.80
2019-01-24T19:32:21.334Z,-0.70
2019-01-24T19:34:49.586Z,-0.70
2019-01-24T19:37:17.689Z,-0.60
2019-01-24T19:39:45.979Z,-0.50
2019-01-24T19:42:14.170Z,-0.50
2019-01-24T19:44:42.138Z,-0.60
2019-01-24T19:47:10.260Z,-0.60
2019-01-24T19:49:39.045Z,-0.70
2019-01-24T19:52:07.446Z,-0.60
2019-01-24T19:54:35.374Z,-0.60
2019-01-24T19:57:03.841Z,-0.60
2019-01-24T19:59:31.955Z,-0.60
2019-01-24T20:02:00.140Z,-0.70
2019-01-24T20:04:28.461Z,-0.70
2019-01-24T20:06:57.061Z,-0.70
2019-01-24T20:09:25.124Z,-0.70
2019-01-24T20:11:53.307Z,-0.70
2019-01-24T20:14:21.437Z,-0.70
2019-01-24T20:16:49.467Z,-0.70
2019-01-24T20:19:17.614Z,-0.70
2019-01-24T20:21:45.752Z,-0.70
2019-01-24T20:24:14.066Z,-0.70
2019-01-24T20:26:42.400Z,-0.70
2019-01-24T20:29:10.641Z,-0.70
2019-01-24T20:31:38.581Z,-0.70
2019-01-24T20:34:06.730Z,-0.60
2019-01-24T20:36:34.703Z,-0.60
2019-01-24T20:39:07.496Z,-0.50
2019-01-24T20:41:35.861Z,-0.60
2019-01-24T20:44:04.055Z,-0.60
2019-01-24T20:46:32.386Z,-0.60
2019-01-24T20:49:00.929Z,-0.70
2019-01-24T20:51:28.913Z,-0.80
2019-01-24T20:53:56.966Z,-0.90
2019-01-24T20:56:25.002Z,-1.00
2019-01-24T20:58:53.258Z,-1.00
2019-01-24T21:01:21.304Z,-0.90
2019-01-24T21:03:55.312Z,-0.90
2019-01-24T21:06:19.642Z,-1.10
2019-01-24T21:08:47.838Z,-0.90
2019-01-24T21:11:15.840Z,-1.00
2019-01-24T21:13:44.114Z,-1.00
2019-01-24T21:16:12.244Z,-0.90
2019-01-24T21:18:40.517Z,-1.00
2019-01-24T21:21:08.560Z,-1.10
2019-01-24T21:23:36.674Z,-1.20
2019-01-24T21:26:05.141Z,-1.40
2019-01-24T21:28:33.323Z,-1.70
2019-01-24T21:31:01.348Z,-1.60
2019-01-24T21:33:29.413Z,-1.60
2019-01-24T21:35:57.686Z,-1.60
2019-01-24T21:38:25.983Z,-1.80
2019-01-24T21:40:54.173Z,-1.80
2019-01-24T21:43:22.265Z,-1.70
2019-01-24T21:45:50.413Z,-1.50
2019-01-24T21:48:19.748Z,-1.40
2019-01-24T21:50:47.873Z,-1.50
2019-01-24T21:53:16.154Z,-1.60
2019-01-24T21:55:44.448Z,-1.60
2019-01-24T21:58:12.557Z,-1.40
2019-01-24T22:00:40.574Z,-1.50
2019-01-24T22:03:08.961Z,-1.60
2019-01-24T22:05:37.479Z,-1.50
2019-01-24T22:08:05.832Z,-1.30
2019-01-24T22:10:33.982Z,-1.20
2019-01-24T22:13:02.210Z,-1.10
2019-01-24T22:15:30.469Z,-1.10
2019-01-24T22:17:58.705Z,-1.00
2019-01-24T22:20:27.026Z,-1.10
2019-01-24T22:22:55.257Z,-1.00
2019-01-24T22:25:25.330Z,-1.00
2019-01-24T22:27:53.491Z,-0.90
2019-01-24T22:30:28.887Z,-0.90
2019-01-24T22:32:57.066Z,-0.90
2019-01-24T22:35:25.506Z,-0.90
2019-01-24T22:37:54.089Z,-0.90
2019-01-24T22:40:22.206Z,-0.80
2019-01-24T22:42:50.568Z,-0.70
2019-01-24T22:45:20.893Z,-0.80
2019-01-24T22:47:48.927Z,-0.80
2019-01-24T22:50:17.343Z,-0.80
2019-01-24T22:52:45.580Z,-0.80
2019-01-24T22:55:14.165Z,-0.80
2019-01-24T22:57:42.542Z,-0.70
2019-01-24T23:00:46.921Z,-0.80
2019-01-24T23:03:30.931Z,-0.80
2019-01-24T23:05:58.213Z,-0.80
2019-01-24T23:08:25.622Z,-0.90
2019-01-24T23:10:53.394Z,-0.90
2019-01-24T23:13:20.830Z,-0.90
2019-01-24T23:15:48.237Z,-0.90
2019-01-24T23:18:15.550Z,-0.80
2019-01-24T23:20:42.890Z,-0.80
2019-01-24T23:23:10.376Z,-0.80
2019-01-24T23:25:37.688Z,-0.80
2019-01-24T23:28:05.010Z,-0.90
2019-01-24T23:30:32.170Z,-0.90
2019-01-24T23:32:59.227Z,-0.90
2019-01-24T23:35:27.349Z,-0.90
2019-01-24T23:37:55.974Z,-1.00
2019-01-24T23:40:24.846Z,-0.90
2019-01-24T23:42:53.429Z,-0.90
2019-01-24T23:45:21.729Z,-1.00
2019-01-24T23:47:50.269Z,-1.00
2019-01-24T23:50:18.734Z,-1.00
2019-01-24T23:52:46.914Z,-1.00
2019-01-24T23:55:16.205Z,-1.00
2019-01-24T23:57:44.595Z,-1.00
